Terminal Aerodrome Forecast
Issued by NWS Charleston, WV

Current Version | Previous Version | Graphics & Text | Print | Product List | Glossary On
Versions: 1 2 3 4 5 6 7 8 9 10 11 12 13 14 15 16 17 18 19 20 21 22
000
FTUS41 KRLX 270546
TAFHTS
TAF
KHTS 270546Z 2706/2806 00000KT 1/2SM -SHRA FG BKN003
      TEMPO 2706/2709 5SM BR SCT004 BKN070
     FM270900 15004KT 3SM SHRA BR OVC025
     FM271200 23005KT P6SM SHRA VCTS OVC050CB
     FM271500 23008KT P6SM VCTS BKN025CB
     FM271900 25009KT P6SM BKN040
     FM280000 28008KT P6SM BKN050
     FM280300 25005KT P6SM BKN025=

USA.gov is the U.S. government's official web portal to all federal, state and local government web resources and services.